sensor_id;sensor_type;location;lat;lon;timestamp;temperature;humidity
64689;DHT22;62504;46.070;14.492;2023-12-20T00:00:05;2.80;99.90
64689;DHT22;62504;46.070;14.492;2023-12-20T00:02:31;2.90;99.90
64689;DHT22;62504;46.070;14.492;2023-12-20T00:04:57;2.90;99.90
64689;DHT22;62504;46.070;14.492;2023-12-20T00:07:22;3.00;99.90
64689;DHT22;62504;46.070;14.492;2023-12-20T00:09:48;3.00;99.90
64689;DHT22;62504;46.070;14.492;2023-12-20T00:12:14;3.00;99.90
64689;DHT22;62504;46.070;14.492;2023-12-20T00:14:39;3.00;99.90
64689;DHT22;62504;46.070;14.492;2023-12-20T00:17:05;3.00;99.90
64689;DHT22;62504;46.070;14.492;2023-12-20T00:19:31;3.00;99.90
64689;DHT22;62504;46.070;14.492;2023-12-20T00:21:56;3.00;99.90
64689;DHT22;62504;46.070;14.492;2023-12-20T00:24:22;3.00;99.90
64689;DHT22;62504;46.070;14.492;2023-12-20T00:26:48;3.00;99.90
64689;DHT22;62504;46.070;14.492;2023-12-20T00:29:13;3.00;99.90
64689;DHT22;62504;46.070;14.492;2023-12-20T00:31:39;3.10;99.90
64689;DHT22;62504;46.070;14.492;2023-12-20T00:34:04;3.10;99.90
64689;DHT22;62504;46.070;14.492;2023-12-20T00:36:30;3.10;99.90
64689;DHT22;62504;46.070;14.492;2023-12-20T00:38:56;3.00;99.90
64689;DHT22;62504;46.070;14.492;2023-12-20T00:41:21;3.00;99.90
64689;DHT22;62504;46.070;14.492;2023-12-20T00:43:47;3.10;99.90
64689;DHT22;62504;46.070;14.492;2023-12-20T00:46:12;3.00;99.90
64689;DHT22;62504;46.070;14.492;2023-12-20T00:48:38;3.00;99.90
64689;DHT22;62504;46.070;14.492;2023-12-20T00:51:04;3.00;99.90
64689;DHT22;62504;46.070;14.492;2023-12-20T00:53:29;3.00;99.90
64689;DHT22;62504;46.070;14.492;2023-12-20T00:55:55;3.00;99.90
64689;DHT22;62504;46.070;14.492;2023-12-20T00:58:21;3.00;99.90
64689;DHT22;62504;46.070;14.492;2023-12-20T01:00:47;2.90;99.90
64689;DHT22;62504;46.070;14.492;2023-12-20T01:03:12;2.90;99.90
64689;DHT22;62504;46.070;14.492;2023-12-20T01:05:39;3.00;99.90
64689;DHT22;62504;46.070;14.492;2023-12-20T01:08:05;3.00;99.90
64689;DHT22;62504;46.070;14.492;2023-12-20T01:10:30;3.00;99.90
64689;DHT22;62504;46.070;14.492;2023-12-20T01:12:56;3.10;99.90
64689;DHT22;62504;46.070;14.492;2023-12-20T01:15:21;3.10;99.90
64689;DHT22;62504;46.070;14.492;2023-12-20T01:17:47;3.10;99.90
64689;DHT22;62504;46.070;14.492;2023-12-20T01:20:14;3.00;99.90
64689;DHT22;62504;46.070;14.492;2023-12-20T01:22:40;3.00;99.90
64689;DHT22;62504;46.070;14.492;2023-12-20T01:25:08;3.00;99.90
64689;DHT22;62504;46.070;14.492;2023-12-20T01:27:33;3.00;99.90
64689;DHT22;62504;46.070;14.492;2023-12-20T01:29:59;2.90;99.90
64689;DHT22;62504;46.070;14.492;2023-12-20T01:32:25;2.80;99.90
64689;DHT22;62504;46.070;14.492;2023-12-20T01:34:50;2.80;99.90
64689;DHT22;62504;46.070;14.492;2023-12-20T01:37:16;2.80;99.90
64689;DHT22;62504;46.070;14.492;2023-12-20T01:39:42;2.70;99.90
64689;DHT22;62504;46.070;14.492;2023-12-20T01:42:07;2.70;99.90
64689;DHT22;62504;46.070;14.492;2023-12-20T01:44:33;2.70;99.90
64689;DHT22;62504;46.070;14.492;2023-12-20T01:46:59;2.70;99.90
64689;DHT22;62504;46.070;14.492;2023-12-20T01:49:25;2.60;99.90
64689;DHT22;62504;46.070;14.492;2023-12-20T01:51:51;2.60;99.90
64689;DHT22;62504;46.070;14.492;2023-12-20T01:54:17;2.60;99.90
64689;DHT22;62504;46.070;14.492;2023-12-20T01:56:44;2.50;99.90
64689;DHT22;62504;46.070;14.492;2023-12-20T01:59:10;2.40;99.90
64689;DHT22;62504;46.070;14.492;2023-12-20T02:01:36;2.40;99.90
64689;DHT22;62504;46.070;14.492;2023-12-20T02:04:02;2.50;99.90
64689;DHT22;62504;46.070;14.492;2023-12-20T02:06:33;2.40;99.90
64689;DHT22;62504;46.070;14.492;2023-12-20T02:08:59;2.40;99.90
64689;DHT22;62504;46.070;14.492;2023-12-20T02:11:26;2.30;99.90
64689;DHT22;62504;46.070;14.492;2023-12-20T02:13:52;2.40;99.90
64689;DHT22;62504;46.070;14.492;2023-12-20T02:16:18;2.40;99.90
64689;DHT22;62504;46.070;14.492;2023-12-20T02:18:44;2.50;99.90
64689;DHT22;62504;46.070;14.492;2023-12-20T02:21:10;2.50;99.90
64689;DHT22;62504;46.070;14.492;2023-12-20T02:23:36;2.50;99.90
64689;DHT22;62504;46.070;14.492;2023-12-20T02:26:02;2.60;99.90
64689;DHT22;62504;46.070;14.492;2023-12-20T02:28:28;2.50;99.90
64689;DHT22;62504;46.070;14.492;2023-12-20T02:30:55;2.50;99.90
64689;DHT22;62504;46.070;14.492;2023-12-20T02:33:20;2.60;99.90
64689;DHT22;62504;46.070;14.492;2023-12-20T02:35:46;2.50;99.90
64689;DHT22;62504;46.070;14.492;2023-12-20T02:38:12;2.50;99.90
64689;DHT22;62504;46.070;14.492;2023-12-20T02:40:38;2.50;99.90
64689;DHT22;62504;46.070;14.492;2023-12-20T02:43:03;2.60;99.90
64689;DHT22;62504;46.070;14.492;2023-12-20T02:45:29;2.60;99.90
64689;DHT22;62504;46.070;14.492;2023-12-20T02:47:55;2.60;99.90
64689;DHT22;62504;46.070;14.492;2023-12-20T02:50:21;2.60;99.90
64689;DHT22;62504;46.070;14.492;2023-12-20T02:52:47;2.50;99.90
64689;DHT22;62504;46.070;14.492;2023-12-20T02:55:13;2.50;99.90
64689;DHT22;62504;46.070;14.492;2023-12-20T02:57:38;2.50;99.90
64689;DHT22;62504;46.070;14.492;2023-12-20T03:00:08;2.30;99.90
64689;DHT22;62504;46.070;14.492;2023-12-20T03:02:34;2.30;99.90
64689;DHT22;62504;46.070;14.492;2023-12-20T03:05:00;2.30;99.90
64689;DHT22;62504;46.070;14.492;2023-12-20T03:07:26;2.30;99.90
64689;DHT22;62504;46.070;14.492;2023-12-20T03:09:52;2.30;99.90
64689;DHT22;62504;46.070;14.492;2023-12-20T03:12:18;2.30;99.90
64689;DHT22;62504;46.070;14.492;2023-12-20T03:14:44;2.30;99.90
64689;DHT22;62504;46.070;14.492;2023-12-20T03:17:10;2.30;99.90
64689;DHT22;62504;46.070;14.492;2023-12-20T03:19:35;2.30;99.90
64689;DHT22;62504;46.070;14.492;2023-12-20T03:22:01;2.30;99.90
64689;DHT22;62504;46.070;14.492;2023-12-20T03:24:27;2.30;99.90
64689;DHT22;62504;46.070;14.492;2023-12-20T03:26:53;2.30;99.90
64689;DHT22;62504;46.070;14.492;2023-12-20T03:29:18;2.30;99.90
64689;DHT22;62504;46.070;14.492;2023-12-20T03:31:44;2.30;99.90
64689;DHT22;62504;46.070;14.492;2023-12-20T03:34:11;2.40;99.90
64689;DHT22;62504;46.070;14.492;2023-12-20T03:36:37;2.40;99.90
64689;DHT22;62504;46.070;14.492;2023-12-20T03:39:03;2.40;99.90
64689;DHT22;62504;46.070;14.492;2023-12-20T03:41:28;2.40;99.90
64689;DHT22;62504;46.070;14.492;2023-12-20T03:43:54;2.40;99.90
64689;DHT22;62504;46.070;14.492;2023-12-20T03:46:20;2.40;99.90
64689;DHT22;62504;46.070;14.492;2023-12-20T03:48:45;2.30;99.90
64689;DHT22;62504;46.070;14.492;2023-12-20T03:51:11;2.30;99.90
64689;DHT22;62504;46.070;14.492;2023-12-20T03:53:36;2.40;99.90
64689;DHT22;62504;46.070;14.492;2023-12-20T03:56:03;2.30;99.90
64689;DHT22;62504;46.070;14.492;2023-12-20T03:58:29;2.30;99.90
64689;DHT22;62504;46.070;14.492;2023-12-20T04:00:54;2.10;99.90
64689;DHT22;62504;46.070;14.492;2023-12-20T04:03:20;2.00;99.90
64689;DHT22;62504;46.070;14.492;2023-12-20T04:05:46;2.00;99.90
64689;DHT22;62504;46.070;14.492;2023-12-20T04:08:11;2.10;99.90
64689;DHT22;62504;46.070;14.492;2023-12-20T04:10:37;2.00;99.90
64689;DHT22;62504;46.070;14.492;2023-12-20T04:13:04;2.10;99.90
64689;DHT22;62504;46.070;14.492;2023-12-20T04:15:29;2.10;99.90
64689;DHT22;62504;46.070;14.492;2023-12-20T04:17:55;2.10;99.90
64689;DHT22;62504;46.070;14.492;2023-12-20T04:20:21;2.20;99.90
64689;DHT22;62504;46.070;14.492;2023-12-20T04:22:46;2.20;99.90
64689;DHT22;62504;46.070;14.492;2023-12-20T04:25:12;2.20;99.90
64689;DHT22;62504;46.070;14.492;2023-12-20T04:27:38;2.20;99.90
64689;DHT22;62504;46.070;14.492;2023-12-20T04:30:04;2.20;99.90
64689;DHT22;62504;46.070;14.492;2023-12-20T04:32:29;2.20;99.90
64689;DHT22;62504;46.070;14.492;2023-12-20T04:34:55;2.20;99.90
64689;DHT22;62504;46.070;14.492;2023-12-20T04:37:21;2.30;99.90
64689;DHT22;62504;46.070;14.492;2023-12-20T04:39:46;2.30;99.90
64689;DHT22;62504;46.070;14.492;2023-12-20T04:42:12;2.30;99.90
64689;DHT22;62504;46.070;14.492;2023-12-20T04:44:38;2.30;99.90
64689;DHT22;62504;46.070;14.492;2023-12-20T04:47:03;2.40;99.90
64689;DHT22;62504;46.070;14.492;2023-12-20T04:49:29;2.40;99.90
64689;DHT22;62504;46.070;14.492;2023-12-20T04:51:55;2.40;99.90
64689;DHT22;62504;46.070;14.492;2023-12-20T04:54:21;2.30;99.90
64689;DHT22;62504;46.070;14.492;2023-12-20T04:56:46;2.40;99.90
64689;DHT22;62504;46.070;14.492;2023-12-20T04:59:12;2.20;99.90
64689;DHT22;62504;46.070;14.492;2023-12-20T05:01:39;2.20;99.90
64689;DHT22;62504;46.070;14.492;2023-12-20T05:04:04;2.20;99.90
64689;DHT22;62504;46.070;14.492;2023-12-20T05:06:30;2.20;99.90
64689;DHT22;62504;46.070;14.492;2023-12-20T05:08:56;2.30;99.90
64689;DHT22;62504;46.070;14.492;2023-12-20T05:11:21;2.30;99.90
64689;DHT22;62504;46.070;14.492;2023-12-20T05:13:47;2.20;99.90
64689;DHT22;62504;46.070;14.492;2023-12-20T05:16:13;2.10;99.90
64689;DHT22;62504;46.070;14.492;2023-12-20T05:18:44;2.10;99.90
64689;DHT22;62504;46.070;14.492;2023-12-20T05:21:10;2.20;99.90
64689;DHT22;62504;46.070;14.492;2023-12-20T05:23:36;2.30;99.90
64689;DHT22;62504;46.070;14.492;2023-12-20T05:26:01;2.30;99.90
64689;DHT22;62504;46.070;14.492;2023-12-20T05:28:27;2.40;99.90
64689;DHT22;62504;46.070;14.492;2023-12-20T05:30:53;2.30;99.90
64689;DHT22;62504;46.070;14.492;2023-12-20T05:33:19;2.30;99.90
64689;DHT22;62504;46.070;14.492;2023-12-20T05:35:45;2.40;99.90
64689;DHT22;62504;46.070;14.492;2023-12-20T05:38:10;2.40;99.90
64689;DHT22;62504;46.070;14.492;2023-12-20T05:40:36;2.40;99.90
64689;DHT22;62504;46.070;14.492;2023-12-20T05:43:02;2.40;99.90
64689;DHT22;62504;46.070;14.492;2023-12-20T05:45:28;2.40;99.90
64689;DHT22;62504;46.070;14.492;2023-12-20T05:47:53;2.40;99.90
64689;DHT22;62504;46.070;14.492;2023-12-20T05:50:19;2.40;99.90
64689;DHT22;62504;46.070;14.492;2023-12-20T05:52:44;2.40;99.90
64689;DHT22;62504;46.070;14.492;2023-12-20T05:55:10;2.40;99.90
64689;DHT22;62504;46.070;14.492;2023-12-20T05:57:36;2.40;99.90
64689;DHT22;62504;46.070;14.492;2023-12-20T06:00:01;2.40;99.90
64689;DHT22;62504;46.070;14.492;2023-12-20T06:02:28;2.40;99.90
64689;DHT22;62504;46.070;14.492;2023-12-20T06:04:54;2.40;99.90
64689;DHT22;62504;46.070;14.492;2023-12-20T06:07:20;2.40;99.90
64689;DHT22;62504;46.070;14.492;2023-12-20T06:09:46;2.40;99.90
64689;DHT22;62504;46.070;14.492;2023-12-20T06:12:11;2.40;99.90
64689;DHT22;62504;46.070;14.492;2023-12-20T06:14:37;2.40;99.90
64689;DHT22;62504;46.070;14.492;2023-12-20T06:17:03;2.30;99.90
64689;DHT22;62504;46.070;14.492;2023-12-20T06:19:28;2.30;99.90
64689;DHT22;62504;46.070;14.492;2023-12-20T06:21:54;2.40;99.90
64689;DHT22;62504;46.070;14.492;2023-12-20T06:24:19;2.40;99.90
64689;DHT22;62504;46.070;14.492;2023-12-20T06:26:46;2.40;99.90
64689;DHT22;62504;46.070;14.492;2023-12-20T06:29:12;2.40;99.90
64689;DHT22;62504;46.070;14.492;2023-12-20T06:31:38;2.40;99.90
64689;DHT22;62504;46.070;14.492;2023-12-20T06:34:03;2.30;99.90
64689;DHT22;62504;46.070;14.492;2023-12-20T06:36:29;2.30;99.90
64689;DHT22;62504;46.070;14.492;2023-12-20T06:38:55;2.20;99.90
64689;DHT22;62504;46.070;14.492;2023-12-20T06:41:20;2.10;99.90
64689;DHT22;62504;46.070;14.492;2023-12-20T06:43:46;2.10;99.90
64689;DHT22;62504;46.070;14.492;2023-12-20T06:46:12;2.10;99.90
64689;DHT22;62504;46.070;14.492;2023-12-20T06:48:39;2.00;99.90
64689;DHT22;62504;46.070;14.492;2023-12-20T06:51:05;2.10;99.90
64689;DHT22;62504;46.070;14.492;2023-12-20T06:53:31;2.20;99.90
64689;DHT22;62504;46.070;14.492;2023-12-20T06:55:57;2.20;99.90
64689;DHT22;62504;46.070;14.492;2023-12-20T06:58:23;2.20;99.90
64689;DHT22;62504;46.070;14.492;2023-12-20T07:00:49;2.20;99.90
64689;DHT22;62504;46.070;14.492;2023-12-20T07:03:14;2.20;99.90
64689;DHT22;62504;46.070;14.492;2023-12-20T07:05:40;2.20;99.90
64689;DHT22;62504;46.070;14.492;2023-12-20T07:08:06;2.20;99.90
64689;DHT22;62504;46.070;14.492;2023-12-20T07:10:32;2.20;99.90
64689;DHT22;62504;46.070;14.492;2023-12-20T07:12:58;2.30;99.90
64689;DHT22;62504;46.070;14.492;2023-12-20T07:15:23;2.30;99.90
64689;DHT22;62504;46.070;14.492;2023-12-20T07:17:49;2.40;99.90
64689;DHT22;62504;46.070;14.492;2023-12-20T07:20:15;2.40;99.90
64689;DHT22;62504;46.070;14.492;2023-12-20T07:22:40;2.50;99.90
64689;DHT22;62504;46.070;14.492;2023-12-20T07:25:07;2.60;99.90
64689;DHT22;62504;46.070;14.492;2023-12-20T07:27:33;2.50;99.90
64689;DHT22;62504;46.070;14.492;2023-12-20T07:29:58;2.60;99.90
64689;DHT22;62504;46.070;14.492;2023-12-20T07:32:24;2.60;99.90
64689;DHT22;62504;46.070;14.492;2023-12-20T07:34:50;2.60;99.90
64689;DHT22;62504;46.070;14.492;2023-12-20T07:37:15;2.50;99.90
64689;DHT22;62504;46.070;14.492;2023-12-20T07:39:44;2.50;99.90
64689;DHT22;62504;46.070;14.492;2023-12-20T07:42:09;2.50;99.90
64689;DHT22;62504;46.070;14.492;2023-12-20T07:44:35;2.50;99.90
64689;DHT22;62504;46.070;14.492;2023-12-20T07:47:04;2.70;99.90
64689;DHT22;62504;46.070;14.492;2023-12-20T07:49:33;2.70;99.90
64689;DHT22;62504;46.070;14.492;2023-12-20T07:51:58;2.80;99.90
64689;DHT22;62504;46.070;14.492;2023-12-20T07:54:24;2.90;99.90
64689;DHT22;62504;46.070;14.492;2023-12-20T07:56:50;2.80;99.90
64689;DHT22;62504;46.070;14.492;2023-12-20T07:59:15;2.80;99.90
64689;DHT22;62504;46.070;14.492;2023-12-20T08:01:41;2.80;99.90
64689;DHT22;62504;46.070;14.492;2023-12-20T08:04:08;2.80;99.90
64689;DHT22;62504;46.070;14.492;2023-12-20T08:06:33;2.90;99.90
64689;DHT22;62504;46.070;14.492;2023-12-20T08:08:59;2.80;99.90
64689;DHT22;62504;46.070;14.492;2023-12-20T08:11:25;2.70;99.90
64689;DHT22;62504;46.070;14.492;2023-12-20T08:13:50;2.70;99.90
64689;DHT22;62504;46.070;14.492;2023-12-20T08:16:16;2.70;99.90
64689;DHT22;62504;46.070;14.492;2023-12-20T08:18:43;2.50;99.90
64689;DHT22;62504;46.070;14.492;2023-12-20T08:21:09;2.50;99.90
64689;DHT22;62504;46.070;14.492;2023-12-20T08:23:35;2.50;99.90
64689;DHT22;62504;46.070;14.492;2023-12-20T08:26:07;2.60;99.90
64689;DHT22;62504;46.070;14.492;2023-12-20T08:28:33;2.50;99.90
64689;DHT22;62504;46.070;14.492;2023-12-20T08:31:00;2.50;99.90
64689;DHT22;62504;46.070;14.492;2023-12-20T08:33:26;2.60;99.90
64689;DHT22;62504;46.070;14.492;2023-12-20T08:35:52;2.50;99.90
64689;DHT22;62504;46.070;14.492;2023-12-20T08:38:17;2.50;99.90
64689;DHT22;62504;46.070;14.492;2023-12-20T08:40:43;2.60;99.90
64689;DHT22;62504;46.070;14.492;2023-12-20T08:43:09;2.60;99.90
64689;DHT22;62504;46.070;14.492;2023-12-20T08:45:35;2.60;99.90
64689;DHT22;62504;46.070;14.492;2023-12-20T08:48:01;2.60;99.90
64689;DHT22;62504;46.070;14.492;2023-12-20T08:50:28;2.70;99.90
64689;DHT22;62504;46.070;14.492;2023-12-20T08:52:54;2.90;99.90
64689;DHT22;62504;46.070;14.492;2023-12-20T08:55:20;2.90;99.90
64689;DHT22;62504;46.070;14.492;2023-12-20T08:57:46;3.00;99.90
64689;DHT22;62504;46.070;14.492;2023-12-20T09:00:12;3.00;99.90
64689;DHT22;62504;46.070;14.492;2023-12-20T09:02:38;3.00;99.90
64689;DHT22;62504;46.070;14.492;2023-12-20T09:05:04;3.00;99.90
64689;DHT22;62504;46.070;14.492;2023-12-20T09:07:30;3.10;99.90
64689;DHT22;62504;46.070;14.492;2023-12-20T09:09:57;3.20;99.90
64689;DHT22;62504;46.070;14.492;2023-12-20T09:12:23;3.20;99.90
64689;DHT22;62504;46.070;14.492;2023-12-20T09:14:50;3.30;99.90
64689;DHT22;62504;46.070;14.492;2023-12-20T09:17:16;3.40;99.90
64689;DHT22;62504;46.070;14.492;2023-12-20T09:19:43;3.40;99.90
64689;DHT22;62504;46.070;14.492;2023-12-20T09:22:12;3.50;99.90
64689;DHT22;62504;46.070;14.492;2023-12-20T09:24:38;3.60;99.90
64689;DHT22;62504;46.070;14.492;2023-12-20T09:27:05;3.60;99.90
64689;DHT22;62504;46.070;14.492;2023-12-20T09:29:32;3.70;99.90
64689;DHT22;62504;46.070;14.492;2023-12-20T09:31:58;3.70;99.90
64689;DHT22;62504;46.070;14.492;2023-12-20T09:34:24;3.80;99.90
64689;DHT22;62504;46.070;14.492;2023-12-20T09:36:51;3.90;99.90
64689;DHT22;62504;46.070;14.492;2023-12-20T09:39:18;4.00;99.90
64689;DHT22;62504;46.070;14.492;2023-12-20T09:42:49;4.10;99.90
64689;DHT22;62504;46.070;14.492;2023-12-20T09:45:15;4.20;99.90
64689;DHT22;62504;46.070;14.492;2023-12-20T09:47:43;4.10;99.90
64689;DHT22;62504;46.070;14.492;2023-12-20T09:50:09;4.00;99.90
64689;DHT22;62504;46.070;14.492;2023-12-20T09:52:36;4.20;99.90
64689;DHT22;62504;46.070;14.492;2023-12-20T09:55:04;4.50;99.90
64689;DHT22;62504;46.070;14.492;2023-12-20T09:57:32;4.60;99.90
64689;DHT22;62504;46.070;14.492;2023-12-20T09:59:57;4.80;99.90
64689;DHT22;62504;46.070;14.492;2023-12-20T10:02:25;5.00;99.90
64689;DHT22;62504;46.070;14.492;2023-12-20T10:04:55;5.20;99.90
64689;DHT22;62504;46.070;14.492;2023-12-20T10:07:21;5.40;99.90
64689;DHT22;62504;46.070;14.492;2023-12-20T10:09:48;5.50;99.90
64689;DHT22;62504;46.070;14.492;2023-12-20T10:12:14;5.70;99.90
64689;DHT22;62504;46.070;14.492;2023-12-20T10:14:39;5.90;99.90
64689;DHT22;62504;46.070;14.492;2023-12-20T10:17:06;6.10;99.90
64689;DHT22;62504;46.070;14.492;2023-12-20T10:19:35;6.20;99.90
64689;DHT22;62504;46.070;14.492;2023-12-20T10:22:01;6.30;99.90
64689;DHT22;62504;46.070;14.492;2023-12-20T10:24:29;6.40;99.90
64689;DHT22;62504;46.070;14.492;2023-12-20T10:27:05;6.50;99.90
64689;DHT22;62504;46.070;14.492;2023-12-20T10:29:37;6.50;99.90
64689;DHT22;62504;46.070;14.492;2023-12-20T10:32:25;6.50;99.90
64689;DHT22;62504;46.070;14.492;2023-12-20T10:34:52;6.30;99.90
64689;DHT22;62504;46.070;14.492;2023-12-20T10:37:19;5.90;99.90
64689;DHT22;62504;46.070;14.492;2023-12-20T10:39:50;5.40;99.90
64689;DHT22;62504;46.070;14.492;2023-12-20T10:42:18;5.30;99.90
64689;DHT22;62504;46.070;14.492;2023-12-20T10:44:46;5.40;99.90
64689;DHT22;62504;46.070;14.492;2023-12-20T10:47:13;5.60;99.90
64689;DHT22;62504;46.070;14.492;2023-12-20T10:49:39;5.80;99.90
64689;DHT22;62504;46.070;14.492;2023-12-20T10:52:06;6.00;99.90
64689;DHT22;62504;46.070;14.492;2023-12-20T10:54:34;6.10;99.90
64689;DHT22;62504;46.070;14.492;2023-12-20T10:57:00;6.00;99.90
64689;DHT22;62504;46.070;14.492;2023-12-20T10:59:29;5.90;99.90
64689;DHT22;62504;46.070;14.492;2023-12-20T11:01:59;5.80;99.90
64689;DHT22;62504;46.070;14.492;2023-12-20T11:05:40;5.70;99.90
64689;DHT22;62504;46.070;14.492;2023-12-20T11:08:14;5.70;99.90
64689;DHT22;62504;46.070;14.492;2023-12-20T11:13:43;5.50;99.90
64689;DHT22;62504;46.070;14.492;2023-12-20T11:16:13;5.60;99.90
64689;DHT22;62504;46.070;14.492;2023-12-20T11:18:40;5.70;99.90
64689;DHT22;62504;46.070;14.492;2023-12-20T11:21:06;5.80;99.90
64689;DHT22;62504;46.070;14.492;2023-12-20T11:23:32;5.90;99.90
64689;DHT22;62504;46.070;14.492;2023-12-20T11:26:02;5.90;99.90
64689;DHT22;62504;46.070;14.492;2023-12-20T11:28:28;5.90;99.90
64689;DHT22;62504;46.070;14.492;2023-12-20T11:30:58;6.10;99.90
64689;DHT22;62504;46.070;14.492;2023-12-20T11:33:30;6.10;99.90
64689;DHT22;62504;46.070;14.492;2023-12-20T11:35:57;6.00;99.90
64689;DHT22;62504;46.070;14.492;2023-12-20T11:38:24;5.90;99.90
64689;DHT22;62504;46.070;14.492;2023-12-20T11:40:50;5.70;99.90
64689;DHT22;62504;46.070;14.492;2023-12-20T11:46:08;5.90;99.90
64689;DHT22;62504;46.070;14.492;2023-12-20T11:48:36;6.10;99.90
64689;DHT22;62504;46.070;14.492;2023-12-20T11:51:08;6.10;99.90
64689;DHT22;62504;46.070;14.492;2023-12-20T11:53:34;6.20;99.90
64689;DHT22;62504;46.070;14.492;2023-12-20T11:56:00;6.40;99.90
64689;DHT22;62504;46.070;14.492;2023-12-20T11:58:28;6.50;99.90
64689;DHT22;62504;46.070;14.492;2023-12-20T12:00:55;6.60;99.90
64689;DHT22;62504;46.070;14.492;2023-12-20T12:03:20;6.60;99.90
64689;DHT22;62504;46.070;14.492;2023-12-20T12:05:47;6.60;99.90
64689;DHT22;62504;46.070;14.492;2023-12-20T12:08:14;6.60;99.90
64689;DHT22;62504;46.070;14.492;2023-12-20T12:10:39;6.60;99.90
64689;DHT22;62504;46.070;14.492;2023-12-20T12:13:05;6.60;99.90
64689;DHT22;62504;46.070;14.492;2023-12-20T12:15:31;6.60;99.90
64689;DHT22;62504;46.070;14.492;2023-12-20T12:17:57;6.60;99.90
64689;DHT22;62504;46.070;14.492;2023-12-20T12:20:24;6.60;99.90
64689;DHT22;62504;46.070;14.492;2023-12-20T12:23:04;6.70;99.90
64689;DHT22;62504;46.070;14.492;2023-12-20T12:25:31;6.70;99.90
64689;DHT22;62504;46.070;14.492;2023-12-20T12:27:58;6.60;99.90
64689;DHT22;62504;46.070;14.492;2023-12-20T12:30:25;6.60;99.90
64689;DHT22;62504;46.070;14.492;2023-12-20T12:32:52;6.60;99.90
64689;DHT22;62504;46.070;14.492;2023-12-20T12:35:18;6.60;99.90
64689;DHT22;62504;46.070;14.492;2023-12-20T12:37:44;6.60;99.90
64689;DHT22;62504;46.070;14.492;2023-12-20T12:40:11;6.70;99.90
64689;DHT22;62504;46.070;14.492;2023-12-20T12:42:41;6.60;99.90
64689;DHT22;62504;46.070;14.492;2023-12-20T12:45:08;6.60;99.90
64689;DHT22;62504;46.070;14.492;2023-12-20T12:47:34;6.50;99.90
64689;DHT22;62504;46.070;14.492;2023-12-20T12:50:00;6.50;99.90
64689;DHT22;62504;46.070;14.492;2023-12-20T12:52:25;6.50;99.90
64689;DHT22;62504;46.070;14.492;2023-12-20T12:54:52;6.50;99.90
64689;DHT22;62504;46.070;14.492;2023-12-20T12:57:18;6.50;99.90
64689;DHT22;62504;46.070;14.492;2023-12-20T12:59:45;6.50;99.90
64689;DHT22;62504;46.070;14.492;2023-12-20T13:02:14;6.50;99.90
64689;DHT22;62504;46.070;14.492;2023-12-20T13:04:40;6.60;99.90
64689;DHT22;62504;46.070;14.492;2023-12-20T13:07:07;6.60;99.90
64689;DHT22;62504;46.070;14.492;2023-12-20T13:09:33;6.60;99.90
64689;DHT22;62504;46.070;14.492;2023-12-20T13:11:59;6.60;99.90
64689;DHT22;62504;46.070;14.492;2023-12-20T13:14:25;6.70;99.90
64689;DHT22;62504;46.070;14.492;2023-12-20T13:16:50;6.70;99.90
64689;DHT22;62504;46.070;14.492;2023-12-20T13:19:16;6.60;99.90
64689;DHT22;62504;46.070;14.492;2023-12-20T13:21:42;6.60;99.90
64689;DHT22;62504;46.070;14.492;2023-12-20T13:24:07;6.60;99.90
64689;DHT22;62504;46.070;14.492;2023-12-20T13:26:33;6.60;99.90
64689;DHT22;62504;46.070;14.492;2023-12-20T13:28:59;6.60;99.90
64689;DHT22;62504;46.070;14.492;2023-12-20T13:31:24;6.60;99.90
64689;DHT22;62504;46.070;14.492;2023-12-20T13:33:50;6.50;99.90
64689;DHT22;62504;46.070;14.492;2023-12-20T13:36:18;6.50;99.90
64689;DHT22;62504;46.070;14.492;2023-12-20T13:38:45;6.50;99.90
64689;DHT22;62504;46.070;14.492;2023-12-20T13:41:10;6.60;99.90
64689;DHT22;62504;46.070;14.492;2023-12-20T13:43:36;6.60;99.90
64689;DHT22;62504;46.070;14.492;2023-12-20T13:46:02;6.60;99.90
64689;DHT22;62504;46.070;14.492;2023-12-20T13:48:27;6.70;99.90
64689;DHT22;62504;46.070;14.492;2023-12-20T13:50:53;6.70;99.90
64689;DHT22;62504;46.070;14.492;2023-12-20T13:53:20;6.70;99.90
64689;DHT22;62504;46.070;14.492;2023-12-20T13:55:45;6.60;99.90
64689;DHT22;62504;46.070;14.492;2023-12-20T13:58:11;6.60;99.90
64689;DHT22;62504;46.070;14.492;2023-12-20T14:00:37;6.60;99.90
64689;DHT22;62504;46.070;14.492;2023-12-20T14:03:04;6.60;99.90
64689;DHT22;62504;46.070;14.492;2023-12-20T14:05:29;6.60;99.90
64689;DHT22;62504;46.070;14.492;2023-12-20T14:07:55;6.60;99.90
64689;DHT22;62504;46.070;14.492;2023-12-20T14:10:24;6.60;99.90
64689;DHT22;62504;46.070;14.492;2023-12-20T14:12:52;6.70;99.90
64689;DHT22;62504;46.070;14.492;2023-12-20T14:15:18;6.70;99.90
64689;DHT22;62504;46.070;14.492;2023-12-20T14:17:43;6.70;99.90
64689;DHT22;62504;46.070;14.492;2023-12-20T14:20:09;6.60;99.90
64689;DHT22;62504;46.070;14.492;2023-12-20T14:22:37;6.50;99.90
64689;DHT22;62504;46.070;14.492;2023-12-20T14:25:04;6.50;99.90
64689;DHT22;62504;46.070;14.492;2023-12-20T14:27:30;6.50;99.90
64689;DHT22;62504;46.070;14.492;2023-12-20T14:29:56;6.40;99.90
64689;DHT22;62504;46.070;14.492;2023-12-20T14:32:21;6.50;99.90
64689;DHT22;62504;46.070;14.492;2023-12-20T14:34:47;6.60;99.90
64689;DHT22;62504;46.070;14.492;2023-12-20T14:37:13;6.60;99.90
64689;DHT22;62504;46.070;14.492;2023-12-20T14:39:39;6.60;99.90
64689;DHT22;62504;46.070;14.492;2023-12-20T14:42:10;6.60;99.90
64689;DHT22;62504;46.070;14.492;2023-12-20T14:44:42;6.60;99.90
64689;DHT22;62504;46.070;14.492;2023-12-20T14:47:08;6.60;99.90
64689;DHT22;62504;46.070;14.492;2023-12-20T14:49:34;6.60;99.90
64689;DHT22;62504;46.070;14.492;2023-12-20T14:52:00;6.50;99.90
64689;DHT22;62504;46.070;14.492;2023-12-20T14:54:25;6.40;99.90
64689;DHT22;62504;46.070;14.492;2023-12-20T14:56:51;6.40;99.90
64689;DHT22;62504;46.070;14.492;2023-12-20T14:59:17;6.50;99.90
64689;DHT22;62504;46.070;14.492;2023-12-20T15:01:45;6.60;99.90
64689;DHT22;62504;46.070;14.492;2023-12-20T15:04:11;6.60;99.90
64689;DHT22;62504;46.070;14.492;2023-12-20T15:06:38;6.60;99.90
64689;DHT22;62504;46.070;14.492;2023-12-20T15:09:03;6.60;99.90
64689;DHT22;62504;46.070;14.492;2023-12-20T15:11:30;6.60;99.90
64689;DHT22;62504;46.070;14.492;2023-12-20T15:13:56;6.60;99.90
64689;DHT22;62504;46.070;14.492;2023-12-20T15:16:23;6.60;99.90
64689;DHT22;62504;46.070;14.492;2023-12-20T15:18:49;6.60;99.90
64689;DHT22;62504;46.070;14.492;2023-12-20T15:21:16;6.60;99.90
64689;DHT22;62504;46.070;14.492;2023-12-20T15:23:42;6.60;99.90
64689;DHT22;62504;46.070;14.492;2023-12-20T15:26:28;6.50;99.90
64689;DHT22;62504;46.070;14.492;2023-12-20T15:28:54;6.60;99.90
64689;DHT22;62504;46.070;14.492;2023-12-20T15:31:20;6.50;99.90